Time;durP1;ratioP1;P1;durP2;ratioP2;P2;SDS_P1;SDS_P2;PMS_P1;PMS_P2;Temp;Humidity;BMP_temperature;BMP_pressure;BME280_temperature;BME280_humidity;BME280_pressure;Samples;Min_cycle;Max_cycle;Signal;HPM_P1;HPM_P2
2022/07/21 00:00:03;;;;;;;0.63;0.63;;;;;;;23.72;47.29;100522.78;5064212;28;20084;-64
2022/07/21 00:02:28;;;;;;;0.45;0.45;;;;;;;23.64;47.26;100518.81;5063987;28;20088;-64
2022/07/21 00:04:54;;;;;;;1.20;1.10;;;;;;;23.60;47.09;100519.97;5064024;28;20311;-64
2022/07/21 00:07:19;;;;;;;0.38;0.38;;;;;;;23.59;47.21;100514.75;5045664;28;20028;-64
2022/07/21 00:09:45;;;;;;;0.35;0.35;;;;;;;23.58;47.56;100500.66;5063556;28;20167;-64
2022/07/21 00:12:10;;;;;;;0.40;0.40;;;;;;;23.49;47.85;100509.16;5063619;28;20056;-64
2022/07/21 00:14:35;;;;;;;0.20;0.20;;;;;;;23.41;47.98;100512.28;5063703;28;20174;-64
2022/07/21 00:17:02;;;;;;;0.20;0.20;;;;;;;23.35;48.12;100512.63;5063676;28;20043;-64
2022/07/21 00:19:27;;;;;;;2.38;2.17;;;;;;;23.28;48.54;100517.44;5063500;28;20025;-64
2022/07/21 00:21:52;;;;;;;0.50;0.50;;;;;;;23.22;48.24;100523.13;5045291;28;20112;-64
2022/07/21 00:24:18;;;;;;;0.20;0.20;;;;;;;23.18;48.30;100522.44;5063495;28;20085;-64
2022/07/21 00:26:43;;;;;;;0.20;0.20;;;;;;;23.05;48.74;100517.06;5063428;28;20037;-63
2022/07/21 00:29:09;;;;;;;0.10;0.10;;;;;;;22.99;48.90;100510.31;5063629;28;20017;-64
2022/07/21 00:31:34;;;;;;;1.98;1.88;;;;;;;22.93;48.85;100517.75;5063434;28;20085;-63
2022/07/21 00:33:59;;;;;;;1.48;1.38;;;;;;;22.88;48.94;100515.38;5063264;28;20082;-62
2022/07/21 00:36:25;;;;;;;0.50;0.50;;;;;;;22.79;48.87;100516.78;5063309;28;20047;-64
2022/07/21 00:38:50;;;;;;;0.63;0.63;;;;;;;22.81;49.32;100503.47;5063254;28;20039;-63
2022/07/21 00:41:16;;;;;;;0.20;0.20;;;;;;;22.76;49.21;100507.22;5063106;28;20052;-64
2022/07/21 00:43:41;;;;;;;0.20;0.20;;;;;;;22.74;49.44;100500.31;5063176;28;20039;-64
2022/07/21 00:46:07;;;;;;;0.20;0.20;;;;;;;22.69;49.33;100495.31;5063349;28;20028;-63
2022/07/21 00:48:33;;;;;;;0.85;0.85;;;;;;;22.59;49.47;100494.97;5063207;28;20079;-63
2022/07/21 00:50:58;;;;;;;0.20;0.20;;;;;;;22.59;49.33;100492.34;5063174;28;20033;-64
2022/07/21 00:53:24;;;;;;;0.10;0.10;;;;;;;22.49;49.49;100488.50;5063284;28;20029;-63
2022/07/21 00:55:49;;;;;;;0.20;0.20;;;;;;;22.53;49.79;100487.38;5063242;28;20082;-63
2022/07/21 00:58:15;;;;;;;0.22;0.22;;;;;;;22.50;49.69;100483.13;5063169;28;20021;-63
2022/07/21 01:00:41;;;;;;;0.43;0.43;;;;;;;22.38;50.09;100470.59;5063015;28;20032;-63
2022/07/21 01:03:07;;;;;;;0.20;0.20;;;;;;;22.40;49.96;100487.22;5063160;28;20027;-63
2022/07/21 01:05:33;;;;;;;0.20;0.20;;;;;;;22.34;49.71;100485.78;5063004;28;20040;-64
2022/07/21 01:08:02;;;;;;;0.20;0.20;;;;;;;22.31;49.99;100485.09;5062864;28;20017;-64
2022/07/21 01:10:28;;;;;;;0.65;0.65;;;;;;;22.25;50.09;100481.84;5062834;28;20071;-63
2022/07/21 01:12:54;;;;;;;0.20;0.20;;;;;;;22.23;50.44;100483.75;5062929;28;20045;-64
2022/07/21 01:15:20;;;;;;;2.83;1.75;;;;;;;22.18;50.49;100480.50;5063044;28;20086;-64
2022/07/21 01:17:46;;;;;;;0.20;0.20;;;;;;;22.13;50.62;100487.84;5062950;28;20444;-64
2022/07/21 01:20:15;;;;;;;0.40;0.40;;;;;;;22.06;50.84;100481.22;5063035;28;20063;-64
2022/07/21 01:22:42;;;;;;;0.80;0.80;;;;;;;21.92;51.03;100469.59;5062786;28;20045;-64
2022/07/21 01:25:08;;;;;;;0.20;0.20;;;;;;;21.91;51.00;100489.03;5062925;28;20028;-64
2022/07/21 01:27:34;;;;;;;0.40;0.40;;;;;;;21.88;50.42;100474.22;5062810;28;20032;-64
2022/07/21 01:30:00;;;;;;;0.30;0.30;;;;;;;21.88;50.52;100497.16;5062867;28;20025;-64
2022/07/21 01:32:26;;;;;;;0.20;0.20;;;;;;;21.83;50.54;100489.47;5062694;28;20048;-64
2022/07/21 01:34:52;;;;;;;0.20;0.20;;;;;;;21.78;50.43;100494.16;5062741;28;20055;-64
2022/07/21 01:37:23;;;;;;;0.40;0.40;;;;;;;21.78;50.60;100489.72;5062522;28;20115;-64
2022/07/21 01:42:34;;;;;;;0.73;0.73;;;;;;;21.73;51.14;100483.78;5066639;28;20040;-64
2022/07/21 01:45:00;;;;;;;0.20;0.20;;;;;;;21.70;51.23;100478.69;5066431;28;20021;-64
2022/07/21 01:47:25;;;;;;;0.73;0.73;;;;;;;21.65;51.31;100473.66;5066364;28;20131;-64
2022/07/21 01:49:51;;;;;;;0.47;0.47;;;;;;;21.66;51.22;100479.78;5066252;28;20074;-64
2022/07/21 01:52:16;;;;;;;0.20;0.20;;;;;;;21.64;51.39;100476.38;5066033;28;20028;-64
2022/07/21 01:54:42;;;;;;;0.82;0.82;;;;;;;21.60;51.36;100473.03;5066279;28;20021;-63
2022/07/21 01:57:07;;;;;;;1.85;1.75;;;;;;;21.61;51.35;100465.97;5066260;28;20043;-64
2022/07/21 01:59:33;;;;;;;0.20;0.20;;;;;;;21.58;51.24;100466.16;5066096;28;20021;-64
2022/07/21 02:01:58;;;;;;;0.20;0.20;;;;;;;21.58;51.24;100466.16;5066000;28;20021;-64
2022/07/21 02:04:23;;;;;;;0.20;0.20;;;;;;;21.57;51.28;100461.78;5066128;28;20096;-64
2022/07/21 02:06:49;;;;;;;0.20;0.20;;;;;;;21.55;51.50;100456.56;5065891;28;20342;-64
2022/07/21 02:09:14;;;;;;;0.20;0.20;;;;;;;21.58;51.47;100466.16;5065844;28;20028;-64
2022/07/21 02:11:40;;;;;;;0.63;0.63;;;;;;;21.57;51.69;100464.41;5066028;28;20098;-64
2022/07/21 02:14:06;;;;;;;0.28;0.28;;;;;;;21.56;51.70;100453.03;5065816;28;20116;-64
2022/07/21 02:16:31;;;;;;;0.20;0.20;;;;;;;21.59;52.13;100455.50;5065705;28;20028;-64
2022/07/21 02:18:57;;;;;;;4.57;3.83;;;;;;;21.57;52.16;100448.56;5065954;28;20040;-64
2022/07/21 02:21:22;;;;;;;0.20;0.20;;;;;;;21.57;52.03;100448.56;5065441;28;20049;-64
2022/07/21 02:23:48;;;;;;;0.10;0.10;;;;;;;21.53;52.06;100448.75;5065603;28;20028;-64
2022/07/21 02:26:13;;;;;;;0.90;0.90;;;;;;;21.52;52.51;100449.69;5065852;28;20029;-64
2022/07/21 02:28:39;;;;;;;0.77;0.77;;;;;;;21.51;52.46;100450.63;5031138;28;20461;-64
2022/07/21 02:31:06;;;;;;;0.30;0.30;;;;;;;21.49;52.83;100449.84;5065011;28;20077;-63
2022/07/21 02:33:31;;;;;;;0.38;0.38;;;;;;;21.52;52.44;100447.03;5065141;28;20078;-63
2022/07/21 02:35:56;;;;;;;1.35;1.05;;;;;;;21.52;52.67;100436.47;5065387;28;20025;-63
2022/07/21 02:38:22;;;;;;;0.50;0.50;;;;;;;21.50;52.81;100438.34;5065533;28;20091;-63
2022/07/21 02:40:47;;;;;;;0.25;0.25;;;;;;;21.46;52.72;100423.59;5047391;28;20025;-64
2022/07/21 02:43:13;;;;;;;0.68;0.68;;;;;;;21.46;53.08;100430.66;5065576;28;20075;-63
2022/07/21 02:45:41;;;;;;;0.20;0.20;;;;;;;21.44;52.85;100430.75;5065253;28;20028;-63
2022/07/21 02:48:12;;;;;;;0.20;0.20;;;;;;;21.40;53.01;100422.16;5065066;28;20028;-64
2022/07/21 02:50:40;;;;;;;0.37;0.37;;;;;;;21.39;53.22;100424.88;5065275;28;20021;-64
2022/07/21 02:53:09;;;;;;;0.95;0.90;;;;;;;21.35;53.11;100423.34;5064998;28;20741;-62
2022/07/21 02:55:35;;;;;;;0.20;0.20;;;;;;;21.31;53.00;100425.28;5064952;28;20021;-63
2022/07/21 02:58:16;;;;;;;0.85;0.85;;;;;;;21.28;52.94;100428.09;5065174;28;20025;-62
2022/07/21 03:00:53;;;;;;;0.32;0.32;;;;;;;21.23;53.38;100422.22;5065016;28;20021;-63
2022/07/21 03:03:19;;;;;;;0.25;0.25;;;;;;;21.22;53.85;100424.00;5065058;28;20028;-63
2022/07/21 03:05:44;;;;;;;0.63;0.63;;;;;;;21.19;53.91;100418.88;5064845;28;20028;-63
2022/07/21 03:08:11;;;;;;;0.20;0.20;;;;;;;21.13;54.30;100417.44;5064649;28;20027;-64
2022/07/21 03:10:37;;;;;;;0.28;0.28;;;;;;;21.11;54.29;100408.72;5064726;28;20028;-64
2022/07/21 03:13:03;;;;;;;3.40;1.25;;;;;;;21.08;54.52;100415.94;5064534;28;20336;-64
2022/07/21 03:15:29;;;;;;;0.30;0.30;;;;;;;21.02;54.52;100417.13;5064719;28;20029;-63
2022/07/21 03:17:55;;;;;;;0.40;0.40;;;;;;;21.00;54.51;100408.44;5064662;28;20073;-63
2022/07/21 03:20:24;;;;;;;0.30;0.30;;;;;;;21.00;54.50;100404.03;5064589;28;20061;-63
2022/07/21 03:22:50;;;;;;;1.08;1.05;;;;;;;21.07;54.41;100403.69;5064627;28;20535;-63
2022/07/21 03:25:16;;;;;;;0.20;0.20;;;;;;;21.15;54.06;100396.22;5064515;28;20029;-65
2022/07/21 03:27:41;;;;;;;0.20;0.20;;;;;;;21.20;54.14;100399.44;5064449;28;20060;-63
2022/07/21 03:30:08;;;;;;;1.23;1.17;;;;;;;21.25;54.04;100400.06;5046304;28;20500;-63
2022/07/21 03:32:34;;;;;;;0.20;0.20;;;;;;;21.29;53.98;100393.69;5046466;28;20029;-64
2022/07/21 03:34:59;;;;;;;0.25;0.25;;;;;;;21.31;53.59;100396.22;5064431;28;20032;-63
2022/07/21 03:37:25;;;;;;;0.50;0.50;;;;;;;21.30;53.63;100400.69;5064241;28;20028;-64
2022/07/21 03:39:50;;;;;;;1.17;1.08;;;;;;;21.33;53.61;100404.06;5063714;28;20028;-64
2022/07/21 03:42:16;;;;;;;0.25;0.25;;;;;;;21.22;53.84;100394.94;5063975;28;20096;-63
2022/07/21 03:44:41;;;;;;;0.38;0.38;;;;;;;21.20;54.00;100402.09;5064305;28;20017;-63
2022/07/21 03:47:07;;;;;;;0.30;0.30;;;;;;;21.14;54.01;100395.38;5063843;28;20388;-63
2022/07/21 03:49:32;;;;;;;1.65;1.55;;;;;;;21.26;54.04;100403.56;5063965;28;20388;-63
2022/07/21 03:51:57;;;;;;;10.05;3.40;;;;;;;21.45;54.02;100394.66;5063781;28;20052;-63
2022/07/21 03:54:23;;;;;;;0.32;0.32;;;;;;;21.66;53.67;100392.63;5064055;28;20021;-63
2022/07/21 03:56:48;;;;;;;4.50;1.38;;;;;;;21.89;53.63;100393.13;5063850;28;20029;-64
2022/07/21 03:59:13;;;;;;;0.10;0.10;;;;;;;22.15;52.95;100382.88;5064089;28;20021;-64
2022/07/21 04:01:39;;;;;;;0.32;0.32;;;;;;;22.25;52.42;100378.72;5063309;28;20311;-64
2022/07/21 04:04:04;;;;;;;0.65;0.65;;;;;;;22.44;52.12;100392.69;5063662;28;20028;-64
2022/07/21 04:06:29;;;;;;;0.68;0.68;;;;;;;22.55;51.71;100390.25;5063606;28;20052;-64
2022/07/21 04:08:55;;;;;;;0.10;0.10;;;;;;;22.69;51.70;100399.19;5063820;28;20052;-66
2022/07/21 04:11:20;;;;;;;0.15;0.15;;;;;;;22.80;51.25;100390.59;5063849;28;20024;-64
2022/07/21 04:13:45;;;;;;;0.20;0.20;;;;;;;22.83;50.93;100401.84;5063509;28;20424;-64
2022/07/21 04:16:11;;;;;;;0.13;0.13;;;;;;;23.01;51.08;100397.25;5045623;28;20055;-64
2022/07/21 04:18:36;;;;;;;0.68;0.68;;;;;;;23.21;50.51;100400.44;5063683;28;20032;-65
2022/07/21 04:21:01;;;;;;;5.30;1.92;;;;;;;23.39;50.90;100397.63;5063443;28;20036;-65
2022/07/21 04:23:27;;;;;;;0.85;0.85;;;;;;;23.71;50.19;100397.38;5063639;28;20086;-64
2022/07/21 04:25:53;;;;;;;0.20;0.20;;;;;;;23.96;49.69;100400.25;5063493;28;20032;-65
2022/07/21 04:28:18;;;;;;;0.20;0.20;;;;;;;24.13;48.51;100396.47;5063486;28;20059;-64
2022/07/21 04:30:43;;;;;;;1.58;1.48;;;;;;;24.18;48.85;100386.47;5063338;28;20025;-64
2022/07/21 04:33:09;;;;;;;0.40;0.40;;;;;;;24.27;48.23;100392.94;5063252;28;20063;-64
2022/07/21 04:35:35;;;;;;;5.28;2.42;;;;;;;24.29;47.69;100393.69;5063286;28;20283;-64
2022/07/21 04:38:01;;;;;;;0.10;0.10;;;;;;;24.41;48.13;100394.66;5063299;28;20507;-64
2022/07/21 04:40:26;;;;;;;0.20;0.20;;;;;;;24.69;47.36;100382.19;5063218;28;20088;-64
2022/07/21 04:42:52;;;;;;;0.10;0.10;;;;;;;24.78;46.62;100372.72;5063355;28;20028;-64
2022/07/21 04:45:17;;;;;;;1.85;1.35;;;;;;;24.75;46.39;100373.78;5063066;28;20028;-64
2022/07/21 04:47:52;;;;;;;1.17;0.52;;;;;;;24.61;46.64;100380.06;5063382;28;20047;-65
2022/07/21 04:50:21;;;;;;;0.47;0.38;;;;;;;24.50;46.61;100383.44;5063241;28;20036;-64
2022/07/21 04:52:46;;;;;;;0.95;0.95;;;;;;;24.51;46.98;100382.47;5063059;28;20029;-64
2022/07/21 04:55:13;;;;;;;3.60;0.73;;;;;;;24.65;46.72;100390.47;5063152;28;20028;-64
2022/07/21 04:57:44;;;;;;;0.35;0.35;;;;;;;24.81;46.93;100369.00;5063076;28;20048;-65
2022/07/21 05:00:12;;;;;;;0.47;0.47;;;;;;;25.10;46.20;100382.06;5063111;28;20059;-64
2022/07/21 05:02:38;;;;;;;0.25;0.25;;;;;;;25.03;46.04;100378.16;5062953;28;20037;-64
2022/07/21 05:05:04;;;;;;;0.40;0.40;;;;;;;24.94;46.04;100380.50;5063069;28;20040;-64
2022/07/21 05:07:30;;;;;;;0.28;0.28;;;;;;;25.17;46.44;100378.03;5063048;28;20017;-65
2022/07/21 05:09:57;;;;;;;2.28;1.80;;;;;;;25.42;45.79;100388.69;5063082;28;20031;-64
2022/07/21 05:12:22;;;;;;;0.17;0.17;;;;;;;25.60;44.82;100379.41;5063133;28;20072;-64
2022/07/21 05:14:47;;;;;;;0.50;0.50;;;;;;;25.68;45.00;100373.56;5065445;28;20060;-65
2022/07/21 05:17:13;;;;;;;0.50;0.50;;;;;;;25.82;44.75;100382.31;5066854;28;20063;-65
2022/07/21 05:19:38;;;;;;;0.20;0.20;;;;;;;25.92;44.41;100380.69;5067042;28;20104;-64
2022/07/21 05:22:03;;;;;;;0.40;0.40;;;;;;;26.07;44.39;100383.16;5066783;28;20130;-65
2022/07/21 05:24:29;;;;;;;0.40;0.40;;;;;;;26.16;44.16;100382.47;5066895;28;20112;-64
2022/07/21 05:26:54;;;;;;;0.38;0.38;;;;;;;26.45;44.63;100386.59;5066844;28;20055;-64
2022/07/21 05:29:19;;;;;;;0.55;0.55;;;;;;;27.09;44.63;100376.41;5066697;28;20081;-64
2022/07/21 05:31:45;;;;;;;0.20;0.20;;;;;;;27.74;43.49;100377.50;5066695;28;20169;-64
2022/07/21 05:34:10;;;;;;;0.10;0.10;;;;;;;28.65;43.29;100384.25;5066793;28;20032;-65
2022/07/21 05:36:36;;;;;;;1.58;1.48;;;;;;;29.30;42.57;100372.44;5048730;28;20025;-65
2022/07/21 05:39:02;;;;;;;0.68;0.68;;;;;;;29.92;42.10;100380.28;5048608;28;20028;-65
2022/07/21 05:41:27;;;;;;;0.15;0.15;;;;;;;30.54;40.63;100367.56;5066613;28;20035;-66
2022/07/21 05:43:53;;;;;;;0.10;0.10;;;;;;;30.58;40.06;100374.31;5066734;28;20080;-63
2022/07/21 05:46:18;;;;;;;0.30;0.30;;;;;;;30.84;40.23;100376.38;5066553;28;20025;-63
2022/07/21 05:48:43;;;;;;;0.77;0.77;;;;;;;31.38;39.27;100367.66;5066570;28;20496;-63
2022/07/21 05:51:09;;;;;;;0.50;0.50;;;;;;;31.94;38.55;100374.72;5065108;28;20021;-64
2022/07/21 05:53:34;;;;;;;0.28;0.28;;;;;;;31.81;37.40;100369.75;5066295;28;20085;-64
2022/07/21 05:55:59;;;;;;;0.43;0.43;;;;;;;31.20;36.71;100370.25;5066260;28;20102;-63
2022/07/21 05:58:25;;;;;;;0.20;0.20;;;;;;;30.79;37.32;100375.97;5066291;28;20025;-64
2022/07/21 06:01:11;;;;;;;0.40;0.40;;;;;;;30.26;38.01;100359.44;5066308;28;20337;-64
2022/07/21 06:03:48;;;;;;;0.47;0.47;;;;;;;29.83;37.43;100359.72;5066233;28;20020;-64
2022/07/21 06:06:16;;;;;;;0.30;0.30;;;;;;;29.49;38.51;100358.25;5066156;28;20048;-64
2022/07/21 06:08:43;;;;;;;1.38;1.23;;;;;;;29.64;38.61;100353.38;5066129;28;20100;-65
2022/07/21 06:11:10;;;;;;;0.28;0.28;;;;;;;30.05;38.95;100368.44;5066162;28;20033;-64
2022/07/21 06:13:36;;;;;;;0.68;0.68;;;;;;;30.62;38.74;100370.38;5065906;28;20024;-64
2022/07/21 06:16:03;;;;;;;0.52;0.43;;;;;;;31.08;38.19;100369.63;5065928;28;20044;-63
2022/07/21 06:18:28;;;;;;;0.10;0.10;;;;;;;31.56;37.73;100365.97;5066156;28;20024;-64
2022/07/21 06:20:54;;;;;;;0.10;0.10;;;;;;;31.93;37.46;100361.47;5065858;28;20036;-65
2022/07/21 06:23:19;;;;;;;0.28;0.28;;;;;;;32.46;37.37;100365.03;5065815;28;20066;-65
2022/07/21 06:25:44;;;;;;;0.10;0.10;;;;;;;32.77;35.95;100363.75;5065425;28;20057;-65
2022/07/21 06:28:10;;;;;;;0.20;0.20;;;;;;;33.32;36.17;100358.94;5065723;28;20353;-64
2022/07/21 06:30:35;;;;;;;0.10;0.10;;;;;;;33.56;35.14;100356.47;5065709;28;20027;-64
2022/07/21 06:33:01;;;;;;;3.35;1.33;;;;;;;33.98;35.35;100352.78;5065535;28;20041;-64
2022/07/21 06:35:26;;;;;;;0.22;0.22;;;;;;;34.17;35.11;100353.47;5065558;28;20025;-63
2022/07/21 06:37:52;;;;;;;1.17;1.17;;;;;;;34.32;34.86;100356.31;5065453;28;20020;-63
2022/07/21 06:40:17;;;;;;;0.57;0.57;;;;;;;34.61;34.05;100359.44;5065490;28;20021;-63
2022/07/21 06:42:42;;;;;;;0.10;0.10;;;;;;;34.77;33.99;100361.28;5065491;28;20035;-64
2022/07/21 06:45:08;;;;;;;0.22;0.22;;;;;;;34.70;33.90;100363.00;5065430;28;20112;-64
2022/07/21 06:47:33;;;;;;;0.10;0.10;;;;;;;34.70;33.61;100363.00;5065281;28;20021;-66
2022/07/21 06:50:02;;;;;;;0.10;0.10;;;;;;;34.70;33.39;100357.63;5065389;28;20051;-64
2022/07/21 06:52:28;;;;;;;0.15;0.15;;;;;;;34.46;33.21;100367.44;5065066;28;20056;-64
2022/07/21 06:54:54;;;;;;;0.43;0.43;;;;;;;34.24;33.02;100365.25;5065059;28;20406;-64
2022/07/21 06:57:19;;;;;;;0.65;0.65;;;;;;;34.61;32.67;100360.31;5065108;28;20021;-64
2022/07/21 06:59:45;;;;;;;0.57;0.57;;;;;;;34.99;32.48;100350.72;5065099;28;20384;-64
2022/07/21 07:02:10;;;;;;;0.45;0.45;;;;;;;35.18;32.27;100348.63;5065155;28;20063;-64
2022/07/21 07:04:35;;;;;;;0.10;0.10;;;;;;;35.45;32.25;100355.38;5065282;28;20321;-64
2022/07/21 07:07:01;;;;;;;0.10;0.10;;;;;;;35.48;31.96;100341.53;5064732;28;20377;-65
2022/07/21 07:09:26;;;;;;;1.40;1.30;;;;;;;35.30;31.17;100339.13;5064825;28;20056;-61
2022/07/21 07:11:52;;;;;;;0.20;0.20;;;;;;;35.28;31.04;100345.72;5046756;28;20025;-72
2022/07/21 07:14:18;;;;;;;0.65;0.65;;;;;;;35.63;30.88;100345.31;5046651;28;20028;-73
2022/07/21 07:16:45;;;;;;;0.50;0.50;;;;;;;35.70;30.32;100351.69;5064756;28;20076;-73
2022/07/21 07:19:10;;;;;;;1.30;0.60;;;;;;;35.93;30.18;100348.97;5064612;28;20047;-67
2022/07/21 07:21:35;;;;;;;0.10;0.10;;;;;;;35.80;29.94;100348.75;5064282;28;20053;-65
2022/07/21 07:24:02;;;;;;;0.30;0.30;;;;;;;35.72;30.26;100349.69;5064601;28;20021;-68
2022/07/21 07:26:27;;;;;;;2.40;1.33;;;;;;;35.78;29.87;100348.94;5064584;28;20048;-62
2022/07/21 07:28:53;;;;;;;0.52;0.50;;;;;;;35.83;29.61;100351.91;5064707;28;20392;-65
2022/07/21 07:31:18;;;;;;;0.20;0.20;;;;;;;36.00;29.58;100349.09;5064330;28;20532;-61
2022/07/21 07:33:43;;;;;;;0.10;0.10;;;;;;;36.07;29.82;100338.38;5064404;28;20025;-59
2022/07/21 07:36:11;;;;;;;0.63;0.63;;;;;;;36.04;30.02;100336.88;5063553;28;20032;-58
2022/07/21 07:38:39;;;;;;;0.10;0.10;;;;;;;36.08;29.58;100337.34;5063816;28;20049;-59
2022/07/21 07:41:05;;;;;;;0.15;0.15;;;;;;;36.20;29.46;100341.28;5063765;28;20029;-59
2022/07/21 07:43:30;;;;;;;0.65;0.65;;;;;;;36.26;29.09;100337.06;5064257;28;20044;-58
2022/07/21 07:45:56;;;;;;;0.20;0.20;;;;;;;36.17;28.72;100333.53;5063502;28;20021;-59
2022/07/21 07:48:21;;;;;;;0.22;0.22;;;;;;;36.24;28.96;100335.53;5063861;28;20017;-59
2022/07/21 07:50:47;;;;;;;3.03;1.70;;;;;;;36.33;28.54;100334.41;5063872;28;20036;-60
2022/07/21 07:53:12;;;;;;;0.17;0.17;;;;;;;36.32;28.91;100339.00;5064148;28;20017;-59
2022/07/21 07:55:37;;;;;;;0.20;0.20;;;;;;;36.20;28.02;100335.06;5064203;28;20104;-60
2022/07/21 07:58:03;;;;;;;0.20;0.20;;;;;;;35.37;28.55;100327.63;5063947;28;20021;-59
2022/07/21 08:00:28;;;;;;;0.10;0.10;;;;;;;34.48;29.12;100333.03;5045111;28;20492;-58
2022/07/21 08:02:53;;;;;;;0.25;0.25;;;;;;;33.86;30.37;100328.06;5063971;28;20031;-59
2022/07/21 08:05:19;;;;;;;0.10;0.10;;;;;;;34.12;30.79;100332.41;5064192;28;20052;-60
2022/07/21 08:07:44;;;;;;;0.38;0.38;;;;;;;34.43;30.36;100328.16;5063926;28;20029;-59
2022/07/21 08:10:12;;;;;;;0.30;0.30;;;;;;;34.64;30.13;100323.22;5063900;28;20021;-59
2022/07/21 08:12:39;;;;;;;1.10;1.08;;;;;;;34.14;30.00;100321.47;5045840;28;20031;-58
2022/07/21 08:15:05;;;;;;;0.38;0.38;;;;;;;33.60;30.72;100315.59;5063493;28;20365;-59
2022/07/21 08:17:31;;;;;;;0.45;0.45;;;;;;;33.14;31.29;100316.03;5063656;28;20025;-58
2022/07/21 08:19:56;;;;;;;0.20;0.20;;;;;;;32.96;31.51;100321.47;5063793;28;20021;-59
2022/07/21 08:22:21;;;;;;;0.20;0.20;;;;;;;33.01;32.02;100311.94;5063325;28;20051;-59
2022/07/21 08:24:47;;;;;;;1.10;0.85;;;;;;;33.20;32.00;100315.38;5063455;28;20057;-59
2022/07/21 08:27:13;;;;;;;0.10;0.10;;;;;;;33.17;31.96;100310.31;5063688;28;20021;-59
2022/07/21 08:29:38;;;;;;;0.10;0.10;;;;;;;33.07;32.02;100317.69;5063515;28;20024;-60
2022/07/21 08:32:04;;;;;;;0.68;0.68;;;;;;;32.91;32.22;100323.84;5063660;28;20031;-59
2022/07/21 08:34:30;;;;;;;0.13;0.13;;;;;;;33.30;32.33;100315.22;5063438;28;20021;-59
2022/07/21 08:36:56;;;;;;;0.10;0.10;;;;;;;33.91;31.95;100311.41;5063259;28;20397;-59
2022/07/21 08:39:21;;;;;;;3.63;1.55;;;;;;;34.15;31.16;100306.16;5063175;28;20377;-59
2022/07/21 08:41:47;;;;;;;0.10;0.10;;;;;;;34.12;31.57;100308.16;5063393;28;20025;-59
2022/07/21 08:44:13;;;;;;;0.13;0.13;;;;;;;33.81;31.43;100308.91;5063495;28;20239;-59
2022/07/21 08:46:41;;;;;;;0.40;0.40;;;;;;;33.44;31.73;100294.03;5063298;28;20051;-59
2022/07/21 08:49:09;;;;;;;0.55;0.55;;;;;;;33.57;32.08;100299.78;5045270;28;20035;-59
2022/07/21 08:51:35;;;;;;;0.20;0.20;;;;;;;33.67;31.35;100296.09;5063046;28;20024;-59
2022/07/21 08:54:02;;;;;;;0.22;0.22;;;;;;;33.67;31.64;100298.78;5063353;28;20104;-60
2022/07/21 08:56:27;;;;;;;0.73;0.73;;;;;;;33.83;31.68;100288.03;5063276;28;20036;-60
2022/07/21 08:58:53;;;;;;;1.00;0.68;;;;;;;34.10;31.23;100293.22;5063006;28;20028;-61
2022/07/21 09:01:18;;;;;;;1.20;1.10;;;;;;;34.08;31.20;100289.84;5062976;28;20052;-60
2022/07/21 09:03:44;;;;;;;0.17;0.17;;;;;;;34.22;31.67;100288.34;5063153;28;20029;-61
2022/07/21 09:06:13;;;;;;;0.17;0.17;;;;;;;34.61;31.19;100289.38;5063042;28;20021;-63
2022/07/21 09:08:43;;;;;;;0.17;0.13;;;;;;;34.91;30.78;100288.75;5062743;28;20043;-60
2022/07/21 09:11:25;;;;;;;0.20;0.20;;;;;;;35.20;30.39;100281.84;5062963;28;20036;-61
2022/07/21 09:14:09;;;;;;;0.10;0.10;;;;;;;35.83;29.90;100281.72;5062782;28;20033;-63
2022/07/21 09:16:47;;;;;;;0.15;0.15;;;;;;;36.21;28.84;100286.25;5062966;28;20085;-62
2022/07/21 09:19:23;;;;;;;0.90;0.90;;;;;;;36.38;29.33;100277.09;5063180;28;20025;-62
2022/07/21 09:21:50;;;;;;;0.32;0.32;;;;;;;36.73;29.26;100279.25;5062948;28;20045;-61
2022/07/21 09:24:21;;;;;;;1.73;1.38;;;;;;;36.92;27.87;100278.63;5062852;28;20021;-62
2022/07/21 09:27:25;;;;;;;0.38;0.38;;;;;;;37.39;27.28;100281.00;5044915;28;20025;-61
2022/07/21 09:29:52;;;;;;;0.20;0.20;;;;;;;37.89;27.50;100272.06;5057000;28;20041;-61
2022/07/21 09:32:37;;;;;;;0.10;0.10;;;;;;;38.26;26.50;100263.75;5063003;28;20025;-61
2022/07/21 09:35:09;;;;;;;0.25;0.25;;;;;;;38.67;26.48;100272.94;5062804;28;20025;-61
2022/07/21 09:37:37;;;;;;;0.10;0.10;;;;;;;39.18;26.62;100272.66;5062737;28;20064;-62
2022/07/21 09:40:16;;;;;;;0.10;0.10;;;;;;;39.38;26.06;100274.56;5062797;28;20021;-61
2022/07/21 09:42:47;;;;;;;0.20;0.20;;;;;;;39.52;26.55;100270.75;5062693;28;20411;-62
2022/07/21 09:45:17;;;;;;;0.17;0.17;;;;;;;39.87;26.67;100274.34;5062757;28;20077;-63
2022/07/21 09:47:43;;;;;;;0.40;0.40;;;;;;;40.07;26.40;100273.50;5062546;28;20025;-62
2022/07/21 09:50:12;;;;;;;0.10;0.10;;;;;;;40.20;25.97;100273.44;5062443;28;20025;-63
2022/07/21 09:52:40;;;;;;;0.50;0.50;;;;;;;40.59;25.60;100276.25;5062557;28;20048;-62
2022/07/21 09:55:17;;;;;;;0.10;0.10;;;;;;;40.65;25.54;100274.53;5062619;28;20017;-62
2022/07/21 09:57:44;;;;;;;0.10;0.10;;;;;;;40.36;25.67;100265.84;5062480;28;20036;-62
2022/07/21 10:00:16;;;;;;;0.25;0.25;;;;;;;40.21;25.59;100275.09;5063621;28;20462;-62
2022/07/21 10:02:43;;;;;;;0.43;0.43;;;;;;;40.03;25.53;100273.03;5066213;28;20033;-62
2022/07/21 10:05:15;;;;;;;0.30;0.30;;;;;;;39.73;24.93;100273.53;5047945;28;20021;-62
2022/07/21 10:07:47;;;;;;;1.35;1.27;;;;;;;39.62;24.97;100269.56;5065946;28;20025;-62
2022/07/21 10:10:13;;;;;;;1.08;1.00;;;;;;;39.26;25.14;100266.19;5066184;28;20080;-62
2022/07/21 10:12:39;;;;;;;0.50;0.50;;;;;;;39.00;25.08;100276.75;5066069;28;20507;-61
2022/07/21 10:15:05;;;;;;;0.20;0.20;;;;;;;38.93;25.38;100273.22;5047910;28;20069;-62
2022/07/21 10:17:31;;;;;;;0.40;0.40;;;;;;;38.88;25.25;100273.81;5065900;28;20025;-62
2022/07/21 10:20:29;;;;;;;0.10;0.10;;;;;;;38.95;25.72;100268.41;5065609;28;20025;-62
2022/07/21 10:22:57;;;;;;;0.30;0.30;;;;;;;39.21;25.48;100269.50;5065362;28;20128;-61
2022/07/21 10:25:24;;;;;;;0.10;0.10;;;;;;;39.20;25.40;100276.00;5065721;28;20021;-61
2022/07/21 10:28:12;;;;;;;0.43;0.43;;;;;;;39.22;24.68;100256.78;5065653;28;20056;-61
2022/07/21 10:30:43;;;;;;;0.55;0.55;;;;;;;39.09;24.96;100261.13;5065768;28;20112;-62
2022/07/21 10:33:09;;;;;;;0.38;0.38;;;;;;;39.25;24.72;100250.94;5065566;28;20036;-61
2022/07/21 10:35:40;;;;;;;0.47;0.47;;;;;;;38.99;24.63;100242.53;5065647;28;20029;-61
2022/07/21 10:38:06;;;;;;;0.73;0.73;;;;;;;38.97;24.58;100246.47;5065480;28;20020;-62
2022/07/21 10:40:32;;;;;;;0.52;0.50;;;;;;;38.92;24.48;100247.94;5065550;28;20028;-62
2022/07/21 10:43:00;;;;;;;0.10;0.10;;;;;;;38.96;24.62;100244.81;5065339;28;20029;-61
2022/07/21 10:45:37;;;;;;;0.80;0.32;;;;;;;38.91;24.30;100250.88;5065379;28;20039;-62
2022/07/21 10:48:08;;;;;;;0.10;0.10;;;;;;;38.92;24.59;100245.22;5065336;28;20071;-62
2022/07/21 10:50:39;;;;;;;0.20;0.20;;;;;;;38.64;24.86;100245.34;5065347;28;20033;-61
2022/07/21 10:53:05;;;;;;;0.25;0.25;;;;;;;38.47;25.28;100234.84;5065101;28;20032;-61
2022/07/21 10:55:46;;;;;;;0.13;0.13;;;;;;;38.65;25.13;100236.16;5065169;28;20021;-61
2022/07/21 10:58:16;;;;;;;0.30;0.30;;;;;;;38.60;25.10;100225.91;5047198;28;20119;-63
2022/07/21 11:00:58;;;;;;;0.22;0.22;;;;;;;38.48;24.74;100219.44;5065181;28;20032;-61
2022/07/21 11:03:29;;;;;;;0.30;0.30;;;;;;;38.28;24.93;100215.59;5065044;28;20086;-61
2022/07/21 11:06:06;;;;;;;0.10;0.10;;;;;;;38.01;25.47;100214.59;5065002;28;20055;-61
2022/07/21 11:08:33;;;;;;;0.20;0.20;;;;;;;37.38;26.33;100213.53;5064944;28;20450;-61
2022/07/21 11:11:08;;;;;;;0.38;0.38;;;;;;;36.72;26.91;100213.50;5064150;28;20043;-61
2022/07/21 11:14:08;;;;;;;1.27;0.63;;;;;;;36.14;27.48;100209.66;5064635;28;20029;-61
2022/07/21 11:16:56;;;;;;;0.35;0.35;;;;;;;35.87;28.04;100213.84;5056753;28;20040;-61
2022/07/21 11:19:29;;;;;;;0.40;0.40;;;;;;;35.41;28.21;100210.22;5064941;28;20063;-61
2022/07/21 11:21:55;;;;;;;0.10;0.10;;;;;;;35.06;28.54;100198.00;5064394;28;20642;-60
2022/07/21 11:24:22;;;;;;;0.20;0.20;;;;;;;34.69;29.01;100203.13;5064610;28;20028;-61
2022/07/21 11:27:15;;;;;;;0.10;0.10;;;;;;;34.20;29.53;100196.09;5064546;28;20024;-61